Metar z połowy godziny Komunikat METAR ze strony awiacja.imgw.pl Metar G30 EPRZ METAR EPRZ 190930Z 26007KT 5000 BR NSC 14/11 Q1021 =